sensor_id;sensor_type;location;lat;lon;timestamp;temperature;humidity
74101;DHT22;62462;52.530;21.682;2022-08-19T00:00:36;23.60;58.30
74101;DHT22;62462;52.530;21.682;2022-08-19T00:03:04;23.50;58.80
74101;DHT22;62462;52.530;21.682;2022-08-19T00:05:30;23.50;59.00
74101;DHT22;62462;52.530;21.682;2022-08-19T00:07:57;23.50;58.80
74101;DHT22;62462;52.530;21.682;2022-08-19T00:10:22;23.50;58.60
74101;DHT22;62462;52.530;21.682;2022-08-19T00:12:50;23.50;58.50
74101;DHT22;62462;52.530;21.682;2022-08-19T00:15:20;23.60;58.50
74101;DHT22;62462;52.530;21.682;2022-08-19T00:17:47;23.60;58.40
74101;DHT22;62462;52.530;21.682;2022-08-19T00:20:15;23.60;58.30
74101;DHT22;62462;52.530;21.682;2022-08-19T00:22:43;23.60;58.40
74101;DHT22;62462;52.530;21.682;2022-08-19T00:25:10;23.50;58.50
74101;DHT22;62462;52.530;21.682;2022-08-19T00:27:36;23.50;58.50
74101;DHT22;62462;52.530;21.682;2022-08-19T00:30:04;23.50;58.50
74101;DHT22;62462;52.530;21.682;2022-08-19T00:32:30;23.50;59.30
74101;DHT22;62462;52.530;21.682;2022-08-19T00:34:56;23.50;58.50
74101;DHT22;62462;52.530;21.682;2022-08-19T00:37:23;23.40;58.50
74101;DHT22;62462;52.530;21.682;2022-08-19T00:39:52;23.40;58.60
74101;DHT22;62462;52.530;21.682;2022-08-19T00:42:19;23.40;58.70
74101;DHT22;62462;52.530;21.682;2022-08-19T00:44:45;23.30;58.80
74101;DHT22;62462;52.530;21.682;2022-08-19T00:47:11;23.30;58.80
74101;DHT22;62462;52.530;21.682;2022-08-19T00:49:45;23.30;58.80
74101;DHT22;62462;52.530;21.682;2022-08-19T00:52:23;23.30;58.80
74101;DHT22;62462;52.530;21.682;2022-08-19T00:54:49;23.30;58.90
74101;DHT22;62462;52.530;21.682;2022-08-19T00:57:19;23.20;58.80
74101;DHT22;62462;52.530;21.682;2022-08-19T00:59:51;23.30;59.10
74101;DHT22;62462;52.530;21.682;2022-08-19T01:02:18;23.20;59.10
74101;DHT22;62462;52.530;21.682;2022-08-19T01:04:44;23.20;59.20
74101;DHT22;62462;52.530;21.682;2022-08-19T01:07:09;23.20;59.40
74101;DHT22;62462;52.530;21.682;2022-08-19T01:09:35;23.20;59.30
74101;DHT22;62462;52.530;21.682;2022-08-19T01:12:02;23.10;59.40
74101;DHT22;62462;52.530;21.682;2022-08-19T01:14:29;23.10;59.40
74101;DHT22;62462;52.530;21.682;2022-08-19T01:16:55;23.10;59.20
74101;DHT22;62462;52.530;21.682;2022-08-19T01:19:28;23.10;59.20
74101;DHT22;62462;52.530;21.682;2022-08-19T01:24:38;23.10;59.40
74101;DHT22;62462;52.530;21.682;2022-08-19T01:27:05;23.10;59.40
74101;DHT22;62462;52.530;21.682;2022-08-19T01:29:31;23.10;59.50
74101;DHT22;62462;52.530;21.682;2022-08-19T01:31:57;23.10;59.40
74101;DHT22;62462;52.530;21.682;2022-08-19T01:34:23;23.10;59.30
74101;DHT22;62462;52.530;21.682;2022-08-19T01:36:50;23.00;59.30
74101;DHT22;62462;52.530;21.682;2022-08-19T01:39:22;23.00;59.50
74101;DHT22;62462;52.530;21.682;2022-08-19T01:41:49;23.00;59.50
74101;DHT22;62462;52.530;21.682;2022-08-19T01:44:15;22.80;59.80
74101;DHT22;62462;52.530;21.682;2022-08-19T01:46:42;22.80;59.80
74101;DHT22;62462;52.530;21.682;2022-08-19T01:49:09;22.90;59.70
74101;DHT22;62462;52.530;21.682;2022-08-19T01:51:35;22.80;59.60
74101;DHT22;62462;52.530;21.682;2022-08-19T01:54:02;22.80;59.60
74101;DHT22;62462;52.530;21.682;2022-08-19T01:56:28;22.80;60.60
74101;DHT22;62462;52.530;21.682;2022-08-19T01:58:58;22.80;59.60
74101;DHT22;62462;52.530;21.682;2022-08-19T02:01:25;22.80;59.90
74101;DHT22;62462;52.530;21.682;2022-08-19T02:03:51;22.70;60.00
74101;DHT22;62462;52.530;21.682;2022-08-19T02:06:18;22.70;60.00
74101;DHT22;62462;52.530;21.682;2022-08-19T02:08:44;22.60;60.00
74101;DHT22;62462;52.530;21.682;2022-08-19T02:11:29;22.70;60.10
74101;DHT22;62462;52.530;21.682;2022-08-19T02:13:57;22.60;59.90
74101;DHT22;62462;52.530;21.682;2022-08-19T02:16:23;22.70;60.00
74101;DHT22;62462;52.530;21.682;2022-08-19T02:18:49;22.60;59.90
74101;DHT22;62462;52.530;21.682;2022-08-19T02:21:21;22.60;60.00
74101;DHT22;62462;52.530;21.682;2022-08-19T02:23:47;22.60;60.10
74101;DHT22;62462;52.530;21.682;2022-08-19T02:26:13;22.60;60.00
74101;DHT22;62462;52.530;21.682;2022-08-19T02:28:40;22.60;60.00
74101;DHT22;62462;52.530;21.682;2022-08-19T02:31:13;22.60;60.00
74101;DHT22;62462;52.530;21.682;2022-08-19T02:33:40;22.50;60.20
74101;DHT22;62462;52.530;21.682;2022-08-19T02:36:07;22.50;60.30
74101;DHT22;62462;52.530;21.682;2022-08-19T02:38:34;22.50;60.40
74101;DHT22;62462;52.530;21.682;2022-08-19T02:41:04;22.50;60.40
74101;DHT22;62462;52.530;21.682;2022-08-19T02:43:33;22.40;60.50
74101;DHT22;62462;52.530;21.682;2022-08-19T02:46:26;22.40;60.60
74101;DHT22;62462;52.530;21.682;2022-08-19T02:48:54;22.50;60.50
74101;DHT22;62462;52.530;21.682;2022-08-19T02:51:27;22.40;60.50
74101;DHT22;62462;52.530;21.682;2022-08-19T02:53:54;22.40;60.60
74101;DHT22;62462;52.530;21.682;2022-08-19T02:56:22;22.40;60.40
74101;DHT22;62462;52.530;21.682;2022-08-19T02:58:48;22.40;60.30
74101;DHT22;62462;52.530;21.682;2022-08-19T03:01:32;22.40;60.50
74101;DHT22;62462;52.530;21.682;2022-08-19T03:04:00;22.30;60.50
74101;DHT22;62462;52.530;21.682;2022-08-19T03:06:26;22.30;60.60
74101;DHT22;62462;52.530;21.682;2022-08-19T03:08:52;22.30;60.60
74101;DHT22;62462;52.530;21.682;2022-08-19T03:11:28;22.20;60.70
74101;DHT22;62462;52.530;21.682;2022-08-19T03:13:54;22.20;61.00
74101;DHT22;62462;52.530;21.682;2022-08-19T03:16:22;22.20;60.90
74101;DHT22;62462;52.530;21.682;2022-08-19T03:18:49;22.10;60.80
74101;DHT22;62462;52.530;21.682;2022-08-19T03:21:21;22.20;60.80
74101;DHT22;62462;52.530;21.682;2022-08-19T03:23:47;22.20;60.80
74101;DHT22;62462;52.530;21.682;2022-08-19T03:26:14;22.20;60.80
74101;DHT22;62462;52.530;21.682;2022-08-19T03:28:44;22.10;60.80
74101;DHT22;62462;52.530;21.682;2022-08-19T03:31:12;22.10;61.00
74101;DHT22;62462;52.530;21.682;2022-08-19T03:33:39;22.10;60.90
74101;DHT22;62462;52.530;21.682;2022-08-19T03:36:21;22.10;60.90
74101;DHT22;62462;52.530;21.682;2022-08-19T03:38:50;22.10;60.80
74101;DHT22;62462;52.530;21.682;2022-08-19T03:41:20;22.20;60.90
74101;DHT22;62462;52.530;21.682;2022-08-19T03:43:47;22.20;60.90
74101;DHT22;62462;52.530;21.682;2022-08-19T03:46:15;22.20;61.90
74101;DHT22;62462;52.530;21.682;2022-08-19T03:48:42;22.20;61.00
74101;DHT22;62462;52.530;21.682;2022-08-19T03:51:21;22.20;61.10
74101;DHT22;62462;52.530;21.682;2022-08-19T03:53:47;22.20;61.40
74101;DHT22;62462;52.530;21.682;2022-08-19T03:56:13;22.20;61.30
74101;DHT22;62462;52.530;21.682;2022-08-19T03:58:40;22.10;61.40
74101;DHT22;62462;52.530;21.682;2022-08-19T04:01:15;22.20;61.40
74101;DHT22;62462;52.530;21.682;2022-08-19T04:03:41;22.20;61.40
74101;DHT22;62462;52.530;21.682;2022-08-19T04:08:41;22.20;61.40
74101;DHT22;62462;52.530;21.682;2022-08-19T04:11:13;22.20;61.30
74101;DHT22;62462;52.530;21.682;2022-08-19T04:13:40;22.20;61.50
74101;DHT22;62462;52.530;21.682;2022-08-19T04:16:06;22.20;61.60
74101;DHT22;62462;52.530;21.682;2022-08-19T04:18:36;22.20;61.70
74101;DHT22;62462;52.530;21.682;2022-08-19T04:21:03;22.30;61.80
74101;DHT22;62462;52.530;21.682;2022-08-19T04:23:29;22.30;61.70
74101;DHT22;62462;52.530;21.682;2022-08-19T04:25:56;22.40;61.70
74101;DHT22;62462;52.530;21.682;2022-08-19T04:28:22;22.40;61.80
74101;DHT22;62462;52.530;21.682;2022-08-19T04:30:51;22.40;61.80
74101;DHT22;62462;52.530;21.682;2022-08-19T04:33:20;22.50;61.90
74101;DHT22;62462;52.530;21.682;2022-08-19T04:35:48;22.60;61.90
74101;DHT22;62462;52.530;21.682;2022-08-19T04:38:17;22.60;61.80
74101;DHT22;62462;52.530;21.682;2022-08-19T04:40:45;22.70;62.00
74101;DHT22;62462;52.530;21.682;2022-08-19T04:43:30;22.70;62.00
74101;DHT22;62462;52.530;21.682;2022-08-19T04:45:57;22.70;62.10
74101;DHT22;62462;52.530;21.682;2022-08-19T04:48:23;22.80;62.00
74101;DHT22;62462;52.530;21.682;2022-08-19T04:50:57;22.90;62.10
74101;DHT22;62462;52.530;21.682;2022-08-19T04:53:34;23.00;62.20
74101;DHT22;62462;52.530;21.682;2022-08-19T04:56:05;23.10;62.20
74101;DHT22;62462;52.530;21.682;2022-08-19T04:58:33;23.20;62.00
74101;DHT22;62462;52.530;21.682;2022-08-19T05:00:59;23.30;61.90
74101;DHT22;62462;52.530;21.682;2022-08-19T05:03:25;23.40;61.70
74101;DHT22;62462;52.530;21.682;2022-08-19T05:05:51;23.50;61.70
74101;DHT22;62462;52.530;21.682;2022-08-19T05:08:21;23.60;61.90
74101;DHT22;62462;52.530;21.682;2022-08-19T05:10:50;23.70;62.00
74101;DHT22;62462;52.530;21.682;2022-08-19T05:13:17;23.80;61.80
74101;DHT22;62462;52.530;21.682;2022-08-19T05:15:44;23.90;62.00
74101;DHT22;62462;52.530;21.682;2022-08-19T05:18:10;24.10;61.80
74101;DHT22;62462;52.530;21.682;2022-08-19T05:20:54;24.20;61.50
74101;DHT22;62462;52.530;21.682;2022-08-19T05:23:38;24.30;61.40
74101;DHT22;62462;52.530;21.682;2022-08-19T05:26:04;24.40;61.80
74101;DHT22;62462;52.530;21.682;2022-08-19T05:28:30;24.40;61.90
74101;DHT22;62462;52.530;21.682;2022-08-19T05:30:56;24.40;62.30
74101;DHT22;62462;52.530;21.682;2022-08-19T05:33:24;24.50;62.00
74101;DHT22;62462;52.530;21.682;2022-08-19T05:35:50;24.50;62.50
74101;DHT22;62462;52.530;21.682;2022-08-19T05:38:17;24.50;62.40
74101;DHT22;62462;52.530;21.682;2022-08-19T05:40:43;24.60;62.60
74101;DHT22;62462;52.530;21.682;2022-08-19T05:43:12;24.70;63.10
74101;DHT22;62462;52.530;21.682;2022-08-19T05:45:43;24.80;63.10
74101;DHT22;62462;52.530;21.682;2022-08-19T05:48:12;24.90;62.90
74101;DHT22;62462;52.530;21.682;2022-08-19T05:50:40;25.00;63.00
74101;DHT22;62462;52.530;21.682;2022-08-19T05:53:07;25.10;62.60
74101;DHT22;62462;52.530;21.682;2022-08-19T05:55:35;25.20;62.40
74101;DHT22;62462;52.530;21.682;2022-08-19T05:58:02;25.30;62.40
74101;DHT22;62462;52.530;21.682;2022-08-19T06:00:27;25.40;62.20
74101;DHT22;62462;52.530;21.682;2022-08-19T06:02:56;25.50;62.40
74101;DHT22;62462;52.530;21.682;2022-08-19T06:05:25;25.60;62.00
74101;DHT22;62462;52.530;21.682;2022-08-19T06:07:50;25.70;61.80
74101;DHT22;62462;52.530;21.682;2022-08-19T06:10:16;25.90;61.50
74101;DHT22;62462;52.530;21.682;2022-08-19T06:12:42;26.00;61.30
74101;DHT22;62462;52.530;21.682;2022-08-19T06:15:12;26.10;61.10
74101;DHT22;62462;52.530;21.682;2022-08-19T06:17:39;26.10;60.90
74101;DHT22;62462;52.530;21.682;2022-08-19T06:20:06;26.10;60.80
74101;DHT22;62462;52.530;21.682;2022-08-19T06:22:37;26.10;60.80
74101;DHT22;62462;52.530;21.682;2022-08-19T06:25:04;26.10;60.70
74101;DHT22;62462;52.530;21.682;2022-08-19T06:27:29;26.10;60.90
74101;DHT22;62462;52.530;21.682;2022-08-19T06:29:57;26.20;61.00
74101;DHT22;62462;52.530;21.682;2022-08-19T06:32:22;26.20;60.90
74101;DHT22;62462;52.530;21.682;2022-08-19T06:34:48;26.30;60.70
74101;DHT22;62462;52.530;21.682;2022-08-19T06:37:15;26.40;61.60
74101;DHT22;62462;52.530;21.682;2022-08-19T06:39:43;26.40;60.70
74101;DHT22;62462;52.530;21.682;2022-08-19T06:42:09;26.50;60.70
74101;DHT22;62462;52.530;21.682;2022-08-19T06:44:38;26.50;60.50
74101;DHT22;62462;52.530;21.682;2022-08-19T06:47:07;26.50;60.20
74101;DHT22;62462;52.530;21.682;2022-08-19T06:49:34;26.50;61.20
74101;DHT22;62462;52.530;21.682;2022-08-19T06:52:01;26.60;60.40
74101;DHT22;62462;52.530;21.682;2022-08-19T06:54:27;26.60;60.40
74101;DHT22;62462;52.530;21.682;2022-08-19T06:56:56;26.70;60.40
74101;DHT22;62462;52.530;21.682;2022-08-19T06:59:24;26.80;60.40
74101;DHT22;62462;52.530;21.682;2022-08-19T07:01:55;26.90;60.20
74101;DHT22;62462;52.530;21.682;2022-08-19T07:04:27;26.90;60.00
74101;DHT22;62462;52.530;21.682;2022-08-19T07:07:02;26.90;60.00
74101;DHT22;62462;52.530;21.682;2022-08-19T07:09:29;26.90;59.90
74101;DHT22;62462;52.530;21.682;2022-08-19T07:11:55;26.90;59.80
74101;DHT22;62462;52.530;21.682;2022-08-19T07:14:24;26.90;59.70
74101;DHT22;62462;52.530;21.682;2022-08-19T07:16:52;26.90;59.60
74101;DHT22;62462;52.530;21.682;2022-08-19T07:19:25;26.90;59.80
74101;DHT22;62462;52.530;21.682;2022-08-19T07:21:52;26.80;59.80
74101;DHT22;62462;52.530;21.682;2022-08-19T07:24:21;26.90;60.10
74101;DHT22;62462;52.530;21.682;2022-08-19T07:26:50;27.10;60.30
74101;DHT22;62462;52.530;21.682;2022-08-19T07:29:16;27.30;59.90
74101;DHT22;62462;52.530;21.682;2022-08-19T07:31:42;27.50;59.30
74101;DHT22;62462;52.530;21.682;2022-08-19T07:34:11;27.70;59.20
74101;DHT22;62462;52.530;21.682;2022-08-19T07:36:41;27.80;59.00
74101;DHT22;62462;52.530;21.682;2022-08-19T07:39:28;28.00;58.60
74101;DHT22;62462;52.530;21.682;2022-08-19T07:41:56;28.20;57.70
74101;DHT22;62462;52.530;21.682;2022-08-19T07:44:23;28.30;57.80
74101;DHT22;62462;52.530;21.682;2022-08-19T07:46:52;28.50;57.30
74101;DHT22;62462;52.530;21.682;2022-08-19T07:49:19;28.60;56.80
74101;DHT22;62462;52.530;21.682;2022-08-19T07:52:04;28.70;57.00
74101;DHT22;62462;52.530;21.682;2022-08-19T07:54:33;28.80;56.60
74101;DHT22;62462;52.530;21.682;2022-08-19T07:57:02;28.90;56.50
74101;DHT22;62462;52.530;21.682;2022-08-19T07:59:29;29.00;56.20
74101;DHT22;62462;52.530;21.682;2022-08-19T08:01:55;29.10;55.80
74101;DHT22;62462;52.530;21.682;2022-08-19T08:04:21;29.10;55.70
74101;DHT22;62462;52.530;21.682;2022-08-19T08:07:06;29.20;55.60
74101;DHT22;62462;52.530;21.682;2022-08-19T08:09:50;29.20;54.70
74101;DHT22;62462;52.530;21.682;2022-08-19T08:12:23;29.30;54.80
74101;DHT22;62462;52.530;21.682;2022-08-19T08:14:53;29.30;54.80
74101;DHT22;62462;52.530;21.682;2022-08-19T08:17:22;29.40;54.90
74101;DHT22;62462;52.530;21.682;2022-08-19T08:19:48;29.50;54.10
74101;DHT22;62462;52.530;21.682;2022-08-19T08:22:17;29.50;53.90
74101;DHT22;62462;52.530;21.682;2022-08-19T08:25:12;29.50;53.70
74101;DHT22;62462;52.530;21.682;2022-08-19T08:27:41;29.60;53.60
74101;DHT22;62462;52.530;21.682;2022-08-19T08:30:11;29.60;52.90
74101;DHT22;62462;52.530;21.682;2022-08-19T08:32:38;29.60;52.40
74101;DHT22;62462;52.530;21.682;2022-08-19T08:35:05;29.70;52.90
74101;DHT22;62462;52.530;21.682;2022-08-19T08:37:31;29.70;52.40
74101;DHT22;62462;52.530;21.682;2022-08-19T08:39:57;29.80;52.60
74101;DHT22;62462;52.530;21.682;2022-08-19T08:42:28;29.90;52.10
74101;DHT22;62462;52.530;21.682;2022-08-19T08:45:02;30.00;52.00
74101;DHT22;62462;52.530;21.682;2022-08-19T08:47:35;30.10;52.10
74101;DHT22;62462;52.530;21.682;2022-08-19T08:50:13;30.30;52.50
74101;DHT22;62462;52.530;21.682;2022-08-19T08:52:45;30.40;52.00
74101;DHT22;62462;52.530;21.682;2022-08-19T08:55:15;30.60;51.80
74101;DHT22;62462;52.530;21.682;2022-08-19T09:00:30;30.70;50.50
74101;DHT22;62462;52.530;21.682;2022-08-19T09:03:02;30.80;49.40
74101;DHT22;62462;52.530;21.682;2022-08-19T09:08:40;30.70;48.60
74101;DHT22;62462;52.530;21.682;2022-08-19T09:11:15;30.70;47.90
74101;DHT22;62462;52.530;21.682;2022-08-19T09:13:53;30.80;48.00
74101;DHT22;62462;52.530;21.682;2022-08-19T09:16:22;30.80;46.90
74101;DHT22;62462;52.530;21.682;2022-08-19T09:18:55;30.80;45.40
74101;DHT22;62462;52.530;21.682;2022-08-19T09:21:23;30.70;45.70
74101;DHT22;62462;52.530;21.682;2022-08-19T09:23:50;30.60;46.30
74101;DHT22;62462;52.530;21.682;2022-08-19T09:26:19;30.70;46.00
74101;DHT22;62462;52.530;21.682;2022-08-19T09:28:48;30.80;46.50
74101;DHT22;62462;52.530;21.682;2022-08-19T09:31:17;30.90;45.60
74101;DHT22;62462;52.530;21.682;2022-08-19T09:33:43;31.10;45.20
74101;DHT22;62462;52.530;21.682;2022-08-19T09:36:11;31.10;44.30
74101;DHT22;62462;52.530;21.682;2022-08-19T09:38:39;31.10;43.60
74101;DHT22;62462;52.530;21.682;2022-08-19T09:41:14;31.20;43.40
74101;DHT22;62462;52.530;21.682;2022-08-19T09:43:43;31.20;43.60
74101;DHT22;62462;52.530;21.682;2022-08-19T09:46:09;31.20;41.80
74101;DHT22;62462;52.530;21.682;2022-08-19T09:48:36;31.30;42.20
74101;DHT22;62462;52.530;21.682;2022-08-19T09:51:13;31.40;42.10
74101;DHT22;62462;52.530;21.682;2022-08-19T09:53:44;31.50;41.50
74101;DHT22;62462;52.530;21.682;2022-08-19T09:56:11;31.50;41.80
74101;DHT22;62462;52.530;21.682;2022-08-19T09:58:38;31.60;40.80
74101;DHT22;62462;52.530;21.682;2022-08-19T10:01:06;31.60;39.70
74101;DHT22;62462;52.530;21.682;2022-08-19T10:03:34;31.60;40.70
74101;DHT22;62462;52.530;21.682;2022-08-19T10:06:02;31.70;41.10
74101;DHT22;62462;52.530;21.682;2022-08-19T10:08:32;31.80;40.90
74101;DHT22;62462;52.530;21.682;2022-08-19T10:10:59;31.90;40.20
74101;DHT22;62462;52.530;21.682;2022-08-19T10:13:27;31.90;39.10
74101;DHT22;62462;52.530;21.682;2022-08-19T10:15:56;31.90;37.90
74101;DHT22;62462;52.530;21.682;2022-08-19T10:18:23;31.90;38.60
74101;DHT22;62462;52.530;21.682;2022-08-19T10:20:50;31.90;39.10
74101;DHT22;62462;52.530;21.682;2022-08-19T10:23:19;32.00;39.40
74101;DHT22;62462;52.530;21.682;2022-08-19T10:25:46;32.00;38.90
74101;DHT22;62462;52.530;21.682;2022-08-19T10:31:19;32.00;36.60
74101;DHT22;62462;52.530;21.682;2022-08-19T10:33:46;32.00;37.30
74101;DHT22;62462;52.530;21.682;2022-08-19T10:36:16;32.10;37.90
74101;DHT22;62462;52.530;21.682;2022-08-19T10:38:51;32.20;38.50
74101;DHT22;62462;52.530;21.682;2022-08-19T10:41:19;32.30;37.60
74101;DHT22;62462;52.530;21.682;2022-08-19T10:43:45;32.40;37.80
74101;DHT22;62462;52.530;21.682;2022-08-19T10:46:14;32.40;36.90
74101;DHT22;62462;52.530;21.682;2022-08-19T10:48:42;32.50;37.00
74101;DHT22;62462;52.530;21.682;2022-08-19T10:51:09;32.60;36.90
74101;DHT22;62462;52.530;21.682;2022-08-19T10:53:54;32.60;37.00
74101;DHT22;62462;52.530;21.682;2022-08-19T10:56:24;32.60;36.60
74101;DHT22;62462;52.530;21.682;2022-08-19T10:59:09;32.60;36.90
74101;DHT22;62462;52.530;21.682;2022-08-19T11:01:35;32.60;36.50
74101;DHT22;62462;52.530;21.682;2022-08-19T11:04:02;32.70;36.90
74101;DHT22;62462;52.530;21.682;2022-08-19T11:06:31;32.80;36.40
74101;DHT22;62462;52.530;21.682;2022-08-19T11:08:56;32.80;35.50
74101;DHT22;62462;52.530;21.682;2022-08-19T11:11:23;32.80;35.60
74101;DHT22;62462;52.530;21.682;2022-08-19T11:13:49;32.80;35.80
74101;DHT22;62462;52.530;21.682;2022-08-19T11:16:18;32.80;36.50
74101;DHT22;62462;52.530;21.682;2022-08-19T11:18:50;32.80;36.80
74101;DHT22;62462;52.530;21.682;2022-08-19T11:21:23;32.90;36.20
74101;DHT22;62462;52.530;21.682;2022-08-19T11:23:51;32.90;36.50
74101;DHT22;62462;52.530;21.682;2022-08-19T11:26:19;32.90;36.40
74101;DHT22;62462;52.530;21.682;2022-08-19T11:28:45;33.00;36.40
74101;DHT22;62462;52.530;21.682;2022-08-19T11:31:13;33.20;35.50
74101;DHT22;62462;52.530;21.682;2022-08-19T11:33:39;33.20;35.20
74101;DHT22;62462;52.530;21.682;2022-08-19T11:36:05;33.20;34.70
74101;DHT22;62462;52.530;21.682;2022-08-19T11:38:32;33.20;35.90
74101;DHT22;62462;52.530;21.682;2022-08-19T11:41:01;33.30;35.40
74101;DHT22;62462;52.530;21.682;2022-08-19T11:43:28;33.30;35.10
74101;DHT22;62462;52.530;21.682;2022-08-19T11:45:55;33.30;34.50
74101;DHT22;62462;52.530;21.682;2022-08-19T11:48:21;33.40;35.10
74101;DHT22;62462;52.530;21.682;2022-08-19T11:50:52;33.50;35.10
74101;DHT22;62462;52.530;21.682;2022-08-19T11:53:19;33.50;35.40
74101;DHT22;62462;52.530;21.682;2022-08-19T11:55:49;33.70;35.30
74101;DHT22;62462;52.530;21.682;2022-08-19T11:58:17;33.80;34.70
74101;DHT22;62462;52.530;21.682;2022-08-19T12:00:43;33.80;34.80
74101;DHT22;62462;52.530;21.682;2022-08-19T12:03:11;33.90;35.00
74101;DHT22;62462;52.530;21.682;2022-08-19T12:05:38;33.90;34.60
74101;DHT22;62462;52.530;21.682;2022-08-19T12:08:04;33.90;34.10
74101;DHT22;62462;52.530;21.682;2022-08-19T12:10:30;33.90;34.70
74101;DHT22;62462;52.530;21.682;2022-08-19T12:12:56;33.90;34.60
74101;DHT22;62462;52.530;21.682;2022-08-19T12:15:22;34.00;34.00
74101;DHT22;62462;52.530;21.682;2022-08-19T12:17:47;34.00;34.70
74101;DHT22;62462;52.530;21.682;2022-08-19T12:20:13;34.00;34.50
74101;DHT22;62462;52.530;21.682;2022-08-19T12:22:41;34.10;33.80
74101;DHT22;62462;52.530;21.682;2022-08-19T12:25:09;34.20;33.90
74101;DHT22;62462;52.530;21.682;2022-08-19T12:27:35;34.20;33.70
74101;DHT22;62462;52.530;21.682;2022-08-19T12:30:03;34.10;33.10
74101;DHT22;62462;52.530;21.682;2022-08-19T12:32:29;34.10;33.50
74101;DHT22;62462;52.530;21.682;2022-08-19T12:34:55;34.10;33.70
74101;DHT22;62462;52.530;21.682;2022-08-19T12:37:20;34.00;33.90
74101;DHT22;62462;52.530;21.682;2022-08-19T12:39:46;34.00;33.10
74101;DHT22;62462;52.530;21.682;2022-08-19T12:42:14;33.90;33.80
74101;DHT22;62462;52.530;21.682;2022-08-19T12:44:41;33.90;33.60
74101;DHT22;62462;52.530;21.682;2022-08-19T12:47:11;33.80;33.80
74101;DHT22;62462;52.530;21.682;2022-08-19T12:49:38;33.90;34.60
74101;DHT22;62462;52.530;21.682;2022-08-19T12:52:05;34.00;34.90
74101;DHT22;62462;52.530;21.682;2022-08-19T12:54:31;34.10;35.20
74101;DHT22;62462;52.530;21.682;2022-08-19T12:56:57;34.20;33.40
74101;DHT22;62462;52.530;21.682;2022-08-19T12:59:25;34.10;33.50
74101;DHT22;62462;52.530;21.682;2022-08-19T13:01:51;34.10;34.30
74101;DHT22;62462;52.530;21.682;2022-08-19T13:04:17;34.10;33.50
74101;DHT22;62462;52.530;21.682;2022-08-19T13:06:43;34.10;33.70
74101;DHT22;62462;52.530;21.682;2022-08-19T13:09:09;34.00;33.90
74101;DHT22;62462;52.530;21.682;2022-08-19T13:11:35;34.00;34.20
74101;DHT22;62462;52.530;21.682;2022-08-19T13:14:02;34.00;34.10
74101;DHT22;62462;52.530;21.682;2022-08-19T13:16:32;34.00;34.40
74101;DHT22;62462;52.530;21.682;2022-08-19T13:18:58;34.10;34.50
74101;DHT22;62462;52.530;21.682;2022-08-19T13:21:26;34.10;34.20
74101;DHT22;62462;52.530;21.682;2022-08-19T13:23:56;34.10;34.50
74101;DHT22;62462;52.530;21.682;2022-08-19T13:26:22;34.20;33.90
74101;DHT22;62462;52.530;21.682;2022-08-19T13:28:48;34.10;33.80
74101;DHT22;62462;52.530;21.682;2022-08-19T13:31:55;34.10;34.20
74101;DHT22;62462;52.530;21.682;2022-08-19T13:34:40;34.10;34.60
74101;DHT22;62462;52.530;21.682;2022-08-19T13:37:05;34.30;35.40
74101;DHT22;62462;52.530;21.682;2022-08-19T13:39:32;34.50;35.10
74101;DHT22;62462;52.530;21.682;2022-08-19T13:41:59;34.60;35.00
74101;DHT22;62462;52.530;21.682;2022-08-19T13:44:27;34.60;34.30
74101;DHT22;62462;52.530;21.682;2022-08-19T13:46:59;34.50;34.30
74101;DHT22;62462;52.530;21.682;2022-08-19T13:49:28;34.50;34.00
74101;DHT22;62462;52.530;21.682;2022-08-19T13:51:56;34.40;34.30
74101;DHT22;62462;52.530;21.682;2022-08-19T13:54:22;34.40;33.90
74101;DHT22;62462;52.530;21.682;2022-08-19T13:56:48;34.30;34.20
74101;DHT22;62462;52.530;21.682;2022-08-19T13:59:13;34.20;33.90
74101;DHT22;62462;52.530;21.682;2022-08-19T14:01:39;34.10;34.40
74101;DHT22;62462;52.530;21.682;2022-08-19T14:04:06;34.00;34.30
74101;DHT22;62462;52.530;21.682;2022-08-19T14:06:32;34.00;34.40
74101;DHT22;62462;52.530;21.682;2022-08-19T14:08:58;33.80;34.40
74101;DHT22;62462;52.530;21.682;2022-08-19T14:11:24;33.80;34.70
74101;DHT22;62462;52.530;21.682;2022-08-19T14:13:51;33.80;34.70
74101;DHT22;62462;52.530;21.682;2022-08-19T14:16:18;33.80;34.60
74101;DHT22;62462;52.530;21.682;2022-08-19T14:18:43;33.70;35.00
74101;DHT22;62462;52.530;21.682;2022-08-19T14:21:16;33.70;34.90
74101;DHT22;62462;52.530;21.682;2022-08-19T14:23:43;33.60;34.90
74101;DHT22;62462;52.530;21.682;2022-08-19T14:26:11;33.60;34.70
74101;DHT22;62462;52.530;21.682;2022-08-19T14:28:38;33.60;35.20
74101;DHT22;62462;52.530;21.682;2022-08-19T14:31:06;33.70;35.30
74101;DHT22;62462;52.530;21.682;2022-08-19T14:33:31;33.70;35.00
74101;DHT22;62462;52.530;21.682;2022-08-19T14:35:57;33.70;34.90
74101;DHT22;62462;52.530;21.682;2022-08-19T14:38:23;33.70;34.70
74101;DHT22;62462;52.530;21.682;2022-08-19T14:40:49;33.60;35.10
74101;DHT22;62462;52.530;21.682;2022-08-19T14:43:17;33.70;35.40
74101;DHT22;62462;52.530;21.682;2022-08-19T14:45:43;33.70;35.40
74101;DHT22;62462;52.530;21.682;2022-08-19T14:48:09;33.70;35.40
74101;DHT22;62462;52.530;21.682;2022-08-19T14:50:35;33.70;35.50
74101;DHT22;62462;52.530;21.682;2022-08-19T14:53:07;33.70;35.40
74101;DHT22;62462;52.530;21.682;2022-08-19T14:55:34;33.70;35.30
74101;DHT22;62462;52.530;21.682;2022-08-19T14:58:00;33.70;35.30
74101;DHT22;62462;52.530;21.682;2022-08-19T15:00:27;33.60;35.60
74101;DHT22;62462;52.530;21.682;2022-08-19T15:02:53;33.60;35.20
74101;DHT22;62462;52.530;21.682;2022-08-19T15:05:20;33.60;35.30
74101;DHT22;62462;52.530;21.682;2022-08-19T15:07:46;33.50;35.50
74101;DHT22;62462;52.530;21.682;2022-08-19T15:10:13;33.60;35.40
74101;DHT22;62462;52.530;21.682;2022-08-19T15:12:45;33.50;35.40
74101;DHT22;62462;52.530;21.682;2022-08-19T15:15:13;33.50;35.60
74101;DHT22;62462;52.530;21.682;2022-08-19T15:17:43;33.60;35.30
74101;DHT22;62462;52.530;21.682;2022-08-19T15:20:13;33.40;35.00
74101;DHT22;62462;52.530;21.682;2022-08-19T15:22:39;33.40;35.60
74101;DHT22;62462;52.530;21.682;2022-08-19T15:25:07;33.30;35.60
74101;DHT22;62462;52.530;21.682;2022-08-19T15:27:34;33.30;35.60
74101;DHT22;62462;52.530;21.682;2022-08-19T15:30:00;33.20;35.90
74101;DHT22;62462;52.530;21.682;2022-08-19T15:32:25;33.20;36.10
74101;DHT22;62462;52.530;21.682;2022-08-19T15:34:53;33.20;36.00
74101;DHT22;62462;52.530;21.682;2022-08-19T15:37:19;33.20;36.30